createdAt,value
2019-04-25T00:00:15.813Z,62.50
2019-04-25T00:02:47.161Z,62.80
2019-04-25T00:05:17.182Z,62.50
2019-04-25T00:07:47.144Z,62.60
2019-04-25T00:10:16.809Z,62.50
2019-04-25T00:12:46.517Z,62.30
2019-04-25T00:15:16.423Z,63.10
2019-04-25T00:17:46.194Z,61.70
2019-04-25T00:20:17.086Z,61.80
2019-04-25T00:22:57.126Z,62.10
2019-04-25T00:25:28.475Z,62.20
2019-04-25T00:27:58.197Z,61.50
2019-04-25T00:30:29.157Z,62.30
2019-04-25T00:32:59.145Z,63.00
2019-04-25T00:35:28.761Z,62.30
2019-04-25T00:37:58.460Z,62.60
2019-04-25T00:40:28.582Z,62.80
2019-04-25T00:42:58.393Z,63.40
2019-04-25T00:45:28.106Z,63.10
2019-04-25T00:47:57.814Z,64.60
2019-04-25T00:50:27.525Z,63.70
2019-04-25T00:52:57.339Z,63.40
2019-04-25T00:55:29.023Z,63.50
2019-04-25T00:58:01.365Z,63.30
2019-04-25T01:00:32.756Z,63.60
2019-04-25T01:03:03.717Z,63.60
2019-04-25T01:05:33.049Z,63.70
2019-04-25T01:08:02.870Z,63.80
2019-04-25T01:10:32.573Z,63.70
2019-04-25T01:13:03.077Z,63.50
2019-04-25T01:15:33.847Z,64.10
2019-04-25T01:18:03.846Z,63.90
2019-04-25T01:20:34.489Z,64.30
2019-04-25T01:23:04.097Z,64.40
2019-04-25T01:25:41.064Z,64.80
2019-04-25T01:28:05.159Z,64.80
2019-04-25T01:30:34.867Z,64.80
2019-04-25T01:33:04.677Z,64.80
2019-04-25T01:35:35.931Z,65.00
2019-04-25T01:38:19.563Z,65.20
2019-04-25T01:41:03.350Z,65.20
2019-04-25T01:43:40.786Z,65.20
2019-04-25T01:46:10.705Z,65.80
2019-04-25T01:48:40.423Z,65.40
2019-04-25T01:51:09.769Z,65.80
2019-04-25T01:53:39.333Z,65.70
2019-04-25T01:56:09.037Z,65.50
2019-04-25T01:58:38.355Z,65.20
2019-04-25T02:01:08.045Z,65.80
2019-04-25T02:03:37.858Z,65.90
2019-04-25T02:06:07.313Z,67.00
2019-04-25T02:08:36.873Z,66.90
2019-04-25T02:11:16.758Z,66.50
2019-04-25T02:13:45.997Z,66.50
2019-04-25T02:16:16.137Z,66.10
2019-04-25T02:18:45.846Z,66.20
2019-04-25T02:21:15.549Z,66.60
2019-04-25T02:23:44.829Z,67.20
2019-04-25T02:26:18.219Z,67.20
2019-04-25T02:28:45.613Z,67.20
2019-04-25T02:31:18.306Z,67.50
2019-04-25T02:33:46.870Z,67.10
2019-04-25T02:36:16.688Z,67.10
2019-04-25T02:38:46.394Z,66.70
2019-04-25T02:41:16.110Z,66.90
2019-04-25T02:43:45.918Z,66.70
2019-04-25T02:46:20.044Z,66.70
2019-04-25T02:48:51.500Z,67.20
2019-04-25T02:51:25.595Z,67.50
2019-04-25T02:53:57.862Z,67.30
2019-04-25T02:56:34.397Z,68.50
2019-04-25T02:58:58.925Z,68.70
2019-04-25T03:01:28.743Z,68.90
2019-04-25T03:03:59.327Z,69.00
2019-04-25T03:06:29.596Z,68.30
2019-04-25T03:09:00.259Z,68.80
2019-04-25T03:11:32.186Z,69.00
2019-04-25T03:14:02.089Z,68.70
2019-04-25T03:16:31.813Z,68.70
2019-04-25T03:19:20.055Z,68.50
2019-04-25T03:21:51.406Z,68.90
2019-04-25T03:24:21.111Z,69.40
2019-04-25T03:26:50.817Z,69.50
2019-04-25T03:29:20.228Z,69.40
2019-04-25T03:31:49.579Z,69.60
2019-04-25T03:34:20.584Z,69.90
2019-04-25T03:36:50.690Z,69.60
2019-04-25T03:39:20.300Z,69.60
2019-04-25T03:41:49.897Z,69.70
2019-04-25T03:44:19.618Z,70.10
2019-04-25T03:46:49.321Z,70.30
2019-04-25T03:49:19.133Z,70.20
2019-04-25T03:51:48.469Z,70.50
2019-04-25T03:54:17.746Z,70.40
2019-04-25T03:56:53.633Z,70.40
2019-04-25T03:59:18.798Z,69.40
2019-04-25T04:01:48.498Z,70.10
2019-04-25T04:04:18.214Z,69.50
2019-04-25T04:06:47.818Z,69.10
2019-04-25T04:09:17.628Z,69.00
2019-04-25T04:11:47.142Z,69.30
2019-04-25T04:14:16.954Z,69.00
2019-04-25T04:17:06.286Z,68.80
2019-04-25T04:19:37.333Z,68.70
2019-04-25T04:22:20.491Z,68.80
2019-04-25T04:24:51.836Z,68.80
2019-04-25T04:27:21.446Z,68.40
2019-04-25T04:29:51.049Z,68.00
2019-04-25T04:32:20.765Z,67.70
2019-04-25T04:34:50.473Z,68.20
2019-04-25T04:37:19.749Z,67.60
2019-04-25T04:39:49.026Z,67.70
2019-04-25T04:42:18.785Z,68.20
2019-04-25T04:44:48.493Z,66.70
2019-04-25T04:47:18.591Z,66.20
2019-04-25T04:49:48.032Z,66.80
2019-04-25T04:52:17.459Z,65.60
2019-04-25T04:54:46.880Z,65.50
2019-04-25T04:57:27.018Z,65.40
2019-04-25T04:59:47.982Z,65.00
2019-04-25T05:02:31.105Z,65.10
2019-04-25T05:05:08.236Z,64.60
2019-04-25T05:07:39.539Z,64.10
2019-04-25T05:10:09.253Z,64.20
2019-04-25T05:12:39.164Z,63.50
2019-04-25T05:15:08.974Z,64.00
2019-04-25T05:17:38.790Z,63.50
2019-04-25T05:20:08.601Z,63.60
2019-04-25T05:22:38.417Z,63.40
2019-04-25T05:25:08.201Z,63.60
2019-04-25T05:27:50.670Z,62.60
2019-04-25T05:30:11.024Z,63.10
2019-04-25T05:32:40.464Z,61.90
2019-04-25T05:35:09.907Z,62.40
2019-04-25T05:37:39.642Z,62.20
2019-04-25T05:40:08.962Z,61.60
2019-04-25T05:42:56.262Z,60.80
2019-04-25T05:45:27.197Z,60.60
2019-04-25T05:47:57.117Z,59.90
2019-04-25T05:50:26.734Z,60.20
2019-04-25T05:52:56.438Z,60.70
2019-04-25T05:55:26.573Z,60.40
2019-04-25T05:57:56.474Z,59.80
2019-04-25T06:00:27.078Z,59.70
2019-04-25T06:02:57.840Z,60.10
2019-04-25T06:05:27.629Z,59.80
2019-04-25T06:07:58.074Z,59.70
2019-04-25T06:10:46.021Z,59.10
2019-04-25T06:13:33.848Z,58.30
2019-04-25T06:16:04.918Z,58.10
2019-04-25T06:18:43.863Z,58.40
2019-04-25T06:21:14.325Z,58.20
2019-04-25T06:23:46.041Z,57.50
2019-04-25T06:26:26.699Z,57.60
2019-04-25T06:28:53.671Z,57.30
2019-04-25T06:31:21.320Z,57.20
2019-04-25T06:33:51.319Z,57.70
2019-04-25T06:36:21.322Z,57.80
2019-04-25T06:38:52.145Z,57.80
2019-04-25T06:41:21.982Z,57.90
2019-04-25T06:43:54.138Z,57.30
2019-04-25T06:46:25.819Z,57.30
2019-04-25T06:49:00.810Z,56.30
2019-04-25T06:51:49.881Z,55.80
2019-04-25T06:54:21.936Z,55.00
2019-04-25T06:56:53.540Z,55.30
2019-04-25T06:59:25.941Z,55.20
2019-04-25T07:01:56.225Z,55.00
2019-04-25T07:04:26.980Z,55.60
2019-04-25T07:07:09.687Z,55.20
2019-04-25T07:09:31.479Z,55.00
2019-04-25T07:12:03.578Z,55.10
2019-04-25T07:14:34.117Z,54.70
2019-04-25T07:17:04.494Z,54.30
2019-04-25T07:19:35.496Z,54.00
2019-04-25T07:22:05.349Z,53.30
2019-04-25T07:24:35.401Z,53.40
2019-04-25T07:27:24.542Z,52.70
2019-04-25T07:29:56.220Z,52.80
2019-04-25T07:32:30.179Z,52.40
2019-04-25T07:34:58.508Z,52.70
2019-04-25T07:37:28.181Z,51.80
2019-04-25T07:39:57.894Z,51.90
2019-04-25T07:42:27.693Z,52.80
2019-04-25T07:44:57.430Z,52.30
2019-04-25T07:47:27.256Z,51.60
2019-04-25T07:49:57.146Z,51.20
2019-04-25T07:52:28.777Z,50.50
2019-04-25T07:54:58.510Z,50.30
2019-04-25T07:57:27.982Z,49.80
2019-04-25T07:59:57.721Z,50.10
2019-04-25T08:02:29.687Z,49.30
2019-04-25T08:05:01.033Z,49.00
2019-04-25T08:07:31.568Z,49.20
2019-04-25T08:10:01.381Z,49.40
2019-04-25T08:12:34.213Z,48.40
2019-04-25T08:15:13.767Z,49.30
2019-04-25T08:17:48.429Z,49.60
2019-04-25T08:20:18.141Z,49.80
2019-04-25T08:22:55.696Z,50.10
2019-04-25T08:25:19.787Z,48.50
2019-04-25T08:27:49.826Z,48.50
2019-04-25T08:30:19.539Z,49.30
2019-04-25T08:32:49.145Z,47.80
2019-04-25T08:35:18.862Z,48.80
2019-04-25T08:37:48.566Z,48.00
2019-04-25T08:40:18.486Z,48.10
2019-04-25T08:42:48.190Z,49.00
2019-04-25T08:45:17.805Z,48.10
2019-04-25T08:47:47.250Z,47.80
2019-04-25T08:50:28.835Z,48.10
2019-04-25T08:52:54.402Z,47.90
2019-04-25T08:55:42.034Z,46.70
2019-04-25T08:58:13.769Z,47.20
2019-04-25T09:00:58.275Z,46.70
2019-04-25T09:03:19.150Z,46.40
2019-04-25T09:05:50.523Z,46.00
2019-04-25T09:08:20.318Z,46.50
2019-04-25T09:10:50.119Z,46.70
2019-04-25T09:13:19.738Z,47.00
2019-04-25T09:15:49.537Z,47.20
2019-04-25T09:18:19.917Z,46.40
2019-04-25T09:20:49.791Z,44.60
2019-04-25T09:23:19.488Z,43.80
2019-04-25T09:25:49.307Z,42.90
2019-04-25T09:28:19.010Z,43.10
2019-04-25T09:30:48.463Z,42.70
2019-04-25T09:33:18.131Z,42.40
2019-04-25T09:35:47.836Z,43.70
2019-04-25T09:38:17.655Z,42.10
2019-04-25T09:40:47.028Z,42.10
2019-04-25T09:43:16.661Z,42.10
2019-04-25T09:46:00.094Z,42.70
2019-04-25T09:48:35.381Z,41.90
2019-04-25T09:51:09.554Z,41.30
2019-04-25T09:53:45.963Z,40.30
2019-04-25T09:56:14.082Z,40.80
2019-04-25T09:58:48.271Z,39.90
2019-04-25T10:01:17.702Z,40.40
2019-04-25T10:03:47.450Z,39.00
2019-04-25T10:06:17.647Z,37.20
2019-04-25T10:08:47.523Z,38.40
2019-04-25T10:11:17.471Z,37.40
2019-04-25T10:13:58.744Z,38.60
2019-04-25T10:16:28.358Z,38.80
2019-04-25T10:18:57.705Z,37.10
2019-04-25T10:21:27.365Z,37.30
2019-04-25T10:23:56.974Z,37.40
2019-04-25T10:26:27.161Z,36.80
2019-04-25T10:28:56.500Z,37.80
2019-04-25T10:31:26.311Z,37.00
2019-04-25T10:33:56.117Z,37.60
2019-04-25T10:36:25.834Z,38.40
2019-04-25T10:39:07.604Z,39.00
2019-04-25T10:41:26.477Z,38.70
2019-04-25T10:43:56.227Z,38.30
2019-04-25T10:46:26.005Z,38.40
2019-04-25T10:48:56.167Z,36.30
2019-04-25T10:51:25.946Z,36.10
2019-04-25T10:53:55.216Z,37.10
2019-04-25T10:56:24.840Z,38.40
2019-04-25T10:58:54.953Z,37.20
2019-04-25T11:01:24.982Z,37.00
2019-04-25T11:04:10.827Z,36.80
2019-04-25T11:06:40.847Z,37.10
2019-04-25T11:09:15.439Z,37.60
2019-04-25T11:11:45.833Z,36.90
2019-04-25T11:14:15.749Z,37.60
2019-04-25T11:16:45.636Z,35.70
2019-04-25T11:19:16.293Z,34.90
2019-04-25T11:21:46.560Z,34.20
2019-04-25T11:24:16.343Z,35.00
2019-04-25T11:26:49.922Z,34.90
2019-04-25T11:29:17.197Z,35.40
2019-04-25T11:31:47.534Z,34.70
2019-04-25T11:34:17.932Z,34.70
2019-04-25T11:36:48.429Z,33.60
2019-04-25T11:39:29.649Z,34.20
2019-04-25T11:41:59.468Z,32.70
2019-04-25T11:44:29.269Z,39.00
2019-04-25T11:46:58.893Z,44.60
2019-04-25T11:49:28.702Z,37.00
2019-04-25T11:51:58.401Z,48.60
2019-04-25T11:54:28.219Z,48.80
2019-04-25T11:56:57.822Z,40.10
2019-04-25T11:59:27.636Z,42.40
2019-04-25T12:01:57.468Z,45.60
2019-04-25T12:04:26.898Z,45.10
2019-04-25T12:06:56.562Z,43.20
2019-04-25T12:09:26.172Z,45.40
2019-04-25T12:11:56.022Z,43.60
2019-04-25T12:14:25.434Z,42.40
2019-04-25T12:16:56.264Z,43.60
2019-04-25T12:19:35.058Z,41.80
2019-04-25T12:21:58.237Z,41.30
2019-04-25T12:24:27.641Z,40.50
2019-04-25T12:26:57.520Z,39.20
2019-04-25T12:29:28.365Z,38.50
2019-04-25T12:31:58.638Z,37.60
2019-04-25T12:34:28.489Z,36.00
2019-04-25T12:36:58.413Z,38.60
2019-04-25T12:39:28.118Z,38.80
2019-04-25T12:41:57.937Z,38.50
2019-04-25T12:44:34.474Z,38.20
2019-04-25T12:47:13.512Z,38.50
2019-04-25T12:49:43.789Z,37.70
2019-04-25T12:52:13.765Z,35.90
2019-04-25T12:54:44.074Z,37.90
2019-04-25T12:57:14.649Z,38.40
2019-04-25T12:59:45.147Z,37.00
2019-04-25T13:02:15.167Z,37.00
2019-04-25T13:04:44.876Z,37.30
2019-04-25T13:07:14.889Z,36.40
2019-04-25T13:09:44.067Z,36.40
2019-04-25T13:12:14.958Z,37.10
2019-04-25T13:14:45.109Z,36.80
2019-04-25T13:17:14.861Z,36.60
2019-04-25T13:19:45.494Z,36.80
2019-04-25T13:22:15.305Z,36.20
2019-04-25T13:24:45.014Z,36.30
2019-04-25T13:27:31.426Z,36.00
2019-04-25T13:30:03.766Z,36.10
2019-04-25T13:32:52.270Z,36.10
2019-04-25T13:35:33.508Z,36.30
2019-04-25T13:38:03.435Z,36.30
2019-04-25T13:40:33.146Z,36.30
2019-04-25T13:43:04.819Z,36.30
2019-04-25T13:45:33.897Z,36.10
2019-04-25T13:48:04.860Z,36.10
2019-04-25T13:50:35.066Z,36.00
2019-04-25T13:53:04.873Z,35.90
2019-04-25T13:55:34.675Z,35.80
2019-04-25T13:58:04.802Z,36.00
2019-04-25T14:00:34.932Z,36.50
2019-04-25T14:03:04.498Z,36.50
2019-04-25T14:05:35.324Z,36.70
2019-04-25T14:08:05.206Z,36.40
2019-04-25T14:10:35.002Z,36.10
2019-04-25T14:13:05.022Z,36.00
2019-04-25T14:15:37.158Z,35.60
2019-04-25T14:18:25.217Z,37.00
2019-04-25T14:21:13.291Z,36.30
2019-04-25T14:23:44.248Z,36.00
2019-04-25T14:26:14.206Z,35.40
2019-04-25T14:28:45.063Z,35.00
2019-04-25T14:31:30.562Z,35.80
2019-04-25T14:33:47.962Z,35.60
2019-04-25T14:36:17.661Z,36.10
2019-04-25T14:38:47.474Z,35.80
2019-04-25T14:41:16.876Z,35.90
2019-04-25T14:43:46.587Z,35.30
2019-04-25T14:46:17.426Z,36.00
2019-04-25T14:48:46.834Z,35.40
2019-04-25T14:51:16.535Z,35.10
2019-04-25T14:53:46.342Z,35.70
2019-04-25T14:56:17.596Z,36.10
2019-04-25T14:58:47.616Z,36.40
2019-04-25T15:01:18.621Z,36.40
2019-04-25T15:03:48.461Z,36.20
2019-04-25T15:06:17.942Z,35.60
2019-04-25T15:08:47.681Z,37.10
2019-04-25T15:11:17.286Z,36.60
2019-04-25T15:13:46.697Z,36.50
2019-04-25T15:16:16.009Z,36.80
2019-04-25T15:18:46.799Z,36.80
2019-04-25T15:21:18.714Z,36.70
2019-04-25T15:23:59.585Z,37.00
2019-04-25T15:26:19.345Z,37.70
2019-04-25T15:28:49.065Z,38.30
2019-04-25T15:31:18.499Z,37.10
2019-04-25T15:33:48.370Z,38.10
2019-04-25T15:36:28.564Z,37.60
2019-04-25T15:39:03.145Z,38.80
2019-04-25T15:41:38.536Z,38.60
2019-04-25T15:44:09.834Z,39.60
2019-04-25T15:46:41.287Z,38.90
2019-04-25T15:49:11.098Z,39.00
2019-04-25T15:51:40.910Z,38.90
2019-04-25T15:54:10.366Z,38.00
2019-04-25T15:56:40.237Z,40.20
2019-04-25T15:59:09.942Z,40.50
2019-04-25T16:01:39.857Z,39.90
2019-04-25T16:04:09.780Z,40.90
2019-04-25T16:06:39.586Z,41.00
2019-04-25T16:09:10.523Z,40.50
2019-04-25T16:11:40.979Z,41.10
2019-04-25T16:14:10.885Z,40.40
2019-04-25T16:16:40.576Z,39.80
2019-04-25T16:19:10.498Z,41.20
2019-04-25T16:21:42.128Z,41.20
2019-04-25T16:24:11.669Z,41.70
2019-04-25T16:26:42.473Z,40.30
2019-04-25T16:29:12.089Z,41.90
2019-04-25T16:31:42.010Z,41.30
2019-04-25T16:34:11.837Z,40.60
2019-04-25T16:36:41.820Z,40.80
2019-04-25T16:39:12.858Z,39.80
2019-04-25T16:41:43.935Z,39.90
2019-04-25T16:44:15.031Z,39.00
2019-04-25T16:46:44.773Z,40.60
2019-04-25T16:49:14.590Z,40.70
2019-04-25T16:51:44.190Z,40.10
2019-04-25T16:54:13.817Z,42.00
2019-04-25T16:56:43.617Z,39.60
2019-04-25T16:59:13.429Z,41.80
2019-04-25T17:01:42.909Z,39.40
2019-04-25T17:04:12.751Z,39.10
2019-04-25T17:06:42.066Z,39.40
2019-04-25T17:09:11.808Z,39.80
2019-04-25T17:11:42.699Z,39.70
2019-04-25T17:14:14.041Z,40.20
2019-04-25T17:16:45.394Z,40.00
2019-04-25T17:19:28.479Z,40.40
2019-04-25T17:21:58.222Z,40.70
2019-04-25T17:24:27.944Z,41.20
2019-04-25T17:26:57.657Z,41.30
2019-04-25T17:29:27.457Z,41.40
2019-04-25T17:32:13.858Z,41.40
2019-04-25T17:35:01.612Z,41.10
2019-04-25T17:37:48.405Z,43.40
2019-04-25T17:40:19.625Z,41.90
2019-04-25T17:42:49.362Z,42.60
2019-04-25T17:45:20.711Z,42.50
2019-04-25T17:47:54.543Z,42.70
2019-04-25T17:50:21.078Z,43.30
2019-04-25T17:52:50.962Z,42.00
2019-04-25T17:55:21.090Z,42.60
2019-04-25T17:57:50.904Z,42.00
2019-04-25T18:00:24.409Z,42.60
2019-04-25T18:02:58.961Z,42.50
2019-04-25T18:05:25.041Z,42.80
2019-04-25T18:07:54.861Z,42.70
2019-04-25T18:10:24.771Z,42.70
2019-04-25T18:12:54.581Z,43.10
2019-04-25T18:15:31.561Z,43.30
2019-04-25T18:18:02.397Z,43.90
2019-04-25T18:20:37.021Z,43.30
2019-04-25T18:23:08.274Z,43.30
2019-04-25T18:25:58.060Z,43.60
2019-04-25T18:28:29.076Z,43.60
2019-04-25T18:30:59.210Z,43.80
2019-04-25T18:33:28.863Z,44.00
2019-04-25T18:36:02.738Z,43.80
2019-04-25T18:38:53.433Z,43.90
2019-04-25T18:41:27.752Z,44.00
2019-04-25T18:44:01.769Z,44.20
2019-04-25T18:46:39.152Z,44.50
2019-04-25T18:49:09.271Z,44.60
2019-04-25T18:51:39.089Z,44.90
2019-04-25T18:54:10.446Z,44.90
2019-04-25T18:56:41.721Z,45.00
2019-04-25T18:59:15.642Z,45.20
2019-04-25T19:01:46.246Z,45.30
2019-04-25T19:04:23.507Z,45.60
2019-04-25T19:06:58.026Z,45.60
2019-04-25T19:09:24.575Z,45.40
2019-04-25T19:11:54.286Z,45.60
2019-04-25T19:14:24.094Z,45.80
2019-04-25T19:16:53.899Z,46.00
2019-04-25T19:19:23.710Z,46.60
2019-04-25T19:21:53.246Z,46.70
2019-04-25T19:24:22.726Z,46.40
2019-04-25T19:26:52.342Z,47.30
2019-04-25T19:29:22.042Z,46.70
2019-04-25T19:31:53.295Z,46.40
2019-04-25T19:34:25.046Z,46.50
2019-04-25T19:36:54.658Z,46.70
2019-04-25T19:39:25.925Z,46.80
2019-04-25T19:42:15.373Z,47.10
2019-04-25T19:44:45.188Z,49.00
2019-04-25T19:47:15.009Z,48.10
2019-04-25T19:49:44.992Z,47.20
2019-04-25T19:52:14.456Z,47.20
2019-04-25T19:54:43.961Z,48.30
2019-04-25T19:57:13.641Z,47.60
2019-04-25T19:59:44.619Z,48.30
2019-04-25T20:02:16.949Z,47.90
2019-04-25T20:04:51.218Z,47.80
2019-04-25T20:07:31.420Z,48.20
2019-04-25T20:10:19.041Z,48.50
2019-04-25T20:12:51.767Z,48.60
2019-04-25T20:15:21.650Z,49.30
2019-04-25T20:17:51.965Z,49.00
2019-04-25T20:20:21.586Z,49.80
2019-04-25T20:22:52.290Z,50.90
2019-04-25T20:25:21.857Z,49.80
2019-04-25T20:27:51.527Z,49.70
2019-04-25T20:30:23.369Z,49.70
2019-04-25T20:32:53.490Z,49.40
2019-04-25T20:35:23.112Z,49.50
2019-04-25T20:37:53.419Z,50.10
2019-04-25T20:40:23.322Z,50.40
2019-04-25T20:42:53.926Z,50.50
2019-04-25T20:45:24.206Z,51.00
2019-04-25T20:47:54.763Z,51.10
2019-04-25T20:50:24.555Z,51.10
2019-04-25T20:52:54.942Z,51.10
2019-04-25T20:55:25.521Z,51.20
2019-04-25T20:57:55.504Z,51.40
2019-04-25T21:00:45.319Z,51.90
2019-04-25T21:03:15.009Z,52.30
2019-04-25T21:05:45.280Z,52.70
2019-04-25T21:08:14.936Z,53.20
2019-04-25T21:10:44.359Z,53.00
2019-04-25T21:13:15.237Z,52.80
2019-04-25T21:15:46.401Z,53.10
2019-04-25T21:18:17.790Z,53.30
2019-04-25T21:20:47.594Z,53.50
2019-04-25T21:23:16.838Z,53.40
2019-04-25T21:25:46.601Z,53.70
2019-04-25T21:28:16.306Z,53.60
2019-04-25T21:30:45.725Z,54.10
2019-04-25T21:33:15.525Z,54.20
2019-04-25T21:35:46.057Z,54.30
2019-04-25T21:38:16.795Z,54.50
2019-04-25T21:40:48.753Z,54.70
2019-04-25T21:43:20.474Z,54.70
2019-04-25T21:45:50.420Z,55.10
2019-04-25T21:48:20.421Z,55.40
2019-04-25T21:50:49.947Z,55.10
2019-04-25T21:53:19.328Z,55.60
2019-04-25T21:55:49.362Z,55.30
2019-04-25T21:58:19.283Z,55.70
2019-04-25T22:00:52.195Z,56.00
2019-04-25T22:03:23.830Z,55.90
2019-04-25T22:05:54.335Z,55.90
2019-04-25T22:08:24.674Z,56.00
2019-04-25T22:10:55.928Z,55.90
2019-04-25T22:13:25.733Z,56.10
2019-04-25T22:15:56.195Z,57.10
2019-04-25T22:18:26.906Z,56.50
2019-04-25T22:20:56.850Z,56.30
2019-04-25T22:23:26.727Z,56.30
2019-04-25T22:25:57.977Z,56.50
2019-04-25T22:28:28.433Z,56.40
2019-04-25T22:31:00.056Z,57.60
2019-04-25T22:33:47.369Z,56.50
2019-04-25T22:36:19.034Z,56.70
2019-04-25T22:38:50.382Z,56.80
2019-04-25T22:41:20.101Z,56.80
2019-04-25T22:43:54.620Z,56.70
2019-04-25T22:46:25.815Z,56.50
2019-04-25T22:48:55.702Z,56.60
2019-04-25T22:51:25.581Z,56.70
2019-04-25T22:53:55.609Z,57.20
2019-04-25T22:56:25.318Z,57.40
2019-04-25T22:58:55.025Z,56.70
2019-04-25T23:01:42.820Z,56.50
2019-04-25T23:04:14.200Z,56.60
2019-04-25T23:06:43.889Z,56.70
2019-04-25T23:09:13.648Z,56.60
2019-04-25T23:11:43.581Z,56.80
2019-04-25T23:14:13.565Z,57.50
2019-04-25T23:16:43.010Z,57.00
2019-04-25T23:19:13.443Z,57.00
2019-04-25T23:21:43.750Z,56.80
2019-04-25T23:24:14.637Z,56.60
2019-04-25T23:27:05.168Z,56.60
2019-04-25T23:29:35.986Z,56.50
2019-04-25T23:32:06.800Z,56.50
2019-04-25T23:34:36.633Z,56.80
2019-04-25T23:37:07.138Z,56.90
2019-04-25T23:39:37.389Z,57.00
2019-04-25T23:42:07.303Z,57.10
2019-04-25T23:44:37.100Z,57.20
2019-04-25T23:47:08.232Z,57.60
2019-04-25T23:49:38.071Z,57.50
2019-04-25T23:52:08.647Z,58.30
2019-04-25T23:54:38.510Z,57.60
2019-04-25T23:57:09.393Z,57.80
2019-04-25T23:59:40.288Z,57.70
